Time;durP1;ratioP1;P1;durP2;ratioP2;P2;SDS_P1;SDS_P2;PMS_P1;PMS_P2;Temp;Humidity;BMP_temperature;BMP_pressure;BME280_temperature;BME280_humidity;BME280_pressure;Samples;Min_cycle;Max_cycle;Signal;HPM_P1;HPM_P2
2021/10/07 00:02:00;;;;;;;;;;;;;;;20.09;54.22;101770.06;5019993;28;1880;-37
2021/10/07 00:04:29;;;;;;;;;;;;;;;20.11;54.23;101794.97;5032369;28;1969;-37
2021/10/07 00:07:18;;;;;;;;;;;;;;;20.03;55.14;101792.91;5033496;28;1162;-37
2021/10/07 00:09:47;;;;;;;;;;;;;;;20.04;55.34;101770.44;5019431;28;1788;-37
2021/10/07 00:12:15;;;;;;;;;;;;;;;20.04;55.09;101766.91;5028369;28;1430;-38
2021/10/07 00:14:42;;;;;;;;;;;;;;;20.04;54.46;101791.06;5026482;28;1822;-37
2021/10/07 00:17:12;;;;;;;;;;;;;;;20.05;54.93;101784.72;5024662;28;1871;-37
2021/10/07 00:19:42;;;;;;;;;;;;;;;20.04;55.13;101783.03;5013991;28;1233;-37
2021/10/07 00:22:08;;;;;;;;;;;;;;;20.05;55.13;101779.34;5028519;28;2010;-37
2021/10/07 00:24:44;;;;;;;;;;;;;;;20.01;54.52;101762.59;5026112;28;1968;-37
2021/10/07 00:27:12;;;;;;;;;;;;;;;20.04;55.08;101777.66;5025393;28;1692;-37
2021/10/07 00:29:44;;;;;;;;;;;;;;;19.99;55.10;101769.06;5032610;28;1914;-37
2021/10/07 00:32:15;;;;;;;;;;;;;;;20.01;55.00;101767.97;5031426;28;1731;-38
2021/10/07 00:35:06;;;;;;;;;;;;;;;20.01;55.09;101772.50;5019076;28;1535;-37
2021/10/07 00:40:19;;;;;;;;;;;;;;;20.01;54.93;101793.97;5032204;28;1473;-37
2021/10/07 00:42:47;;;;;;;;;;;;;;;19.98;55.04;101778.13;5030462;28;2056;-37
2021/10/07 00:45:14;;;;;;;;;;;;;;;19.97;54.39;101793.34;5016922;28;1910;-37
2021/10/07 00:47:44;;;;;;;;;;;;;;;19.99;54.89;101775.28;5026780;28;1639;-37
2021/10/07 00:50:11;;;;;;;;;;;;;;;20.02;54.76;101790.34;5032237;28;1813;-37
2021/10/07 00:52:37;;;;;;;;;;;;;;;19.95;55.21;101781.88;5037004;28;1625;-37
2021/10/07 00:55:07;;;;;;;;;;;;;;;19.97;54.74;101773.72;5028675;28;1784;-37
2021/10/07 00:57:35;;;;;;;;;;;;;;;19.98;54.93;101767.38;5033585;28;1699;-37
2021/10/07 01:00:06;;;;;;;;;;;;;;;19.96;54.01;101774.69;5035208;28;1841;-37
2021/10/07 01:02:32;;;;;;;;;;;;;;;19.98;55.20;101787.03;5032246;28;1774;-37
2021/10/07 01:05:00;;;;;;;;;;;;;;;19.98;54.28;101767.38;5034787;28;2027;-38
2021/10/07 01:07:30;;;;;;;;;;;;;;;19.94;54.00;101788.22;5020557;28;1092;-37
2021/10/07 01:09:57;;;;;;;;;;;;;;;19.94;54.68;101749.78;5032387;28;2013;-37
2021/10/07 01:12:26;;;;;;;;;;;;;;;19.98;54.40;101768.22;5031985;28;1860;-37
2021/10/07 01:14:53;;;;;;;;;;;;;;;19.95;55.09;101760.41;5035428;28;1827;-37
2021/10/07 01:17:23;;;;;;;;;;;;;;;19.94;54.25;101757.84;5034747;28;1746;-37
2021/10/07 01:19:54;;;;;;;;;;;;;;;19.98;54.69;101756.63;5035890;28;1170;-37
2021/10/07 01:22:23;;;;;;;;;;;;;;;19.98;53.92;101746.75;5034718;28;1737;-37
2021/10/07 01:24:52;;;;;;;;;;;;;;;19.96;55.18;101769.31;5031174;28;1906;-37
2021/10/07 01:27:21;;;;;;;;;;;;;;;20.00;55.02;101760.06;5033978;28;1854;-37
2021/10/07 01:29:51;;;;;;;;;;;;;;;19.95;54.10;101767.59;5035339;28;1934;-37
2021/10/07 01:32:20;;;;;;;;;;;;;;;19.98;53.86;101770.91;5035083;28;1745;-38
2021/10/07 01:34:49;;;;;;;;;;;;;;;19.98;54.02;101778.97;5034770;28;1764;-37
2021/10/07 01:37:21;;;;;;;;;;;;;;;19.96;55.05;101754.06;5035939;28;1062;-37
2021/10/07 01:39:48;;;;;;;;;;;;;;;20.00;54.97;101755.53;5029304;28;1761;-37
2021/10/07 01:42:15;;;;;;;;;;;;;;;19.99;55.51;101769.91;5027574;28;1764;-37
2021/10/07 01:44:45;;;;;;;;;;;;;;;19.99;54.06;101772.59;5022093;28;1906;-37
2021/10/07 01:47:13;;;;;;;;;;;;;;;19.97;55.27;101771.03;5031639;28;1740;-38
2021/10/07 01:49:39;;;;;;;;;;;;;;;19.95;55.29;101757.72;5033252;28;1817;-37
2021/10/07 01:52:09;;;;;;;;;;;;;;;19.97;55.19;101765.66;5036026;28;990;-37
2021/10/07 01:54:45;;;;;;;;;;;;;;;19.96;55.39;101754.06;5034278;28;1899;-37
2021/10/07 01:57:13;;;;;;;;;;;;;;;19.98;55.16;101775.44;5029907;28;1961;-37
2021/10/07 01:59:42;;;;;;;;;;;;;;;19.97;54.67;101768.34;5031704;28;1914;-37
2021/10/07 02:02:10;;;;;;;;;;;;;;;19.96;54.23;101759.44;5110332;23;3751;-39
2021/10/07 02:04:36;;;;;;;;;;;;;;;19.99;54.62;101801.28;5004923;28;1973;-39
2021/10/07 02:07:05;;;;;;;;;;;;;;;19.95;54.12;101799.81;5007284;28;1570;-38
2021/10/07 02:12:27;;;;;;;;;;;;;;;19.99;55.13;101804.81;5002024;28;2283;-39
2021/10/07 02:14:56;;;;;;;;;;;;;;;19.96;55.18;101785.44;5011415;28;1824;-39
2021/10/07 02:17:31;;;;;;;;;;;;;;;19.98;54.49;101788.84;5012752;28;1884;-39
2021/10/07 02:20:01;;;;;;;;;;;;;;;19.97;54.77;101795.19;5014113;28;1463;-38
2021/10/07 02:22:38;;;;;;;;;;;;;;;19.97;55.06;101803.25;5000098;28;1689;-38
2021/10/07 02:25:05;;;;;;;;;;;;;;;19.99;55.12;101795.91;4996311;28;1971;-38
2021/10/07 02:27:37;;;;;;;;;;;;;;;19.95;55.23;101811.41;5008531;28;1922;-38
2021/10/07 02:30:06;;;;;;;;;;;;;;;19.97;54.43;101811.28;5012044;28;1768;-39
2021/10/07 02:32:41;;;;;;;;;;;;;;;19.95;54.70;101800.66;5010277;28;1911;-39
2021/10/07 02:35:18;;;;;;;;;;;;;;;19.95;54.44;101797.97;5005538;28;1943;-39
2021/10/07 02:37:48;;;;;;;;;;;;;;;19.96;54.51;101790.81;4994514;28;1471;-41
2021/10/07 02:40:19;;;;;;;;;;;;;;;19.96;54.86;101798.84;5013057;28;1067;-39
2021/10/07 02:42:52;;;;;;;;;;;;;;;19.97;55.41;101774.56;5010944;28;1693;-38
2021/10/07 02:45:21;;;;;;;;;;;;;;;19.97;55.41;101784.44;5009264;28;1972;-39
2021/10/07 02:47:58;;;;;;;;;;;;;;;19.94;55.05;101765.91;4997632;28;1699;-39
2021/10/07 02:50:28;;;;;;;;;;;;;;;19.98;55.11;101772.75;5010138;28;1795;-38
2021/10/07 02:52:55;;;;;;;;;;;;;;;20.00;54.82;101754.69;5012915;28;1827;-39
2021/10/07 02:58:04;;;;;;;;;;;;;;;19.93;55.14;101759.66;5013403;28;2290;-39
2021/10/07 03:00:32;;;;;;;;;;;;;;;19.94;54.72;101736.38;5009166;28;2095;-38
2021/10/07 03:03:07;;;;;;;;;;;;;;;20.00;55.65;101743.94;4993835;28;1828;-38
2021/10/07 03:05:35;;;;;;;;;;;;;;;19.95;55.70;101744.28;5008042;28;1914;-39
2021/10/07 03:08:02;;;;;;;;;;;;;;;19.98;55.20;101759.31;5012389;28;1829;-39
2021/10/07 03:10:37;;;;;;;;;;;;;;;19.97;55.87;101741.50;5012903;28;1776;-39
2021/10/07 03:13:06;;;;;;;;;;;;;;;19.99;55.30;101755.66;5013222;28;1054;-39
2021/10/07 03:15:34;;;;;;;;;;;;;;;20.00;55.00;101741.28;5011288;28;1231;-38
2021/10/07 03:18:01;;;;;;;;;;;;;;;19.98;55.93;101740.53;5005418;28;1926;-38
2021/10/07 03:23:15;;;;;;;;;;;;;;;19.95;55.55;101751.50;5012459;28;1750;-39
2021/10/07 03:25:42;;;;;;;;;;;;;;;19.97;55.06;101765.66;4993360;28;1987;-39
2021/10/07 03:28:14;;;;;;;;;;;;;;;19.95;55.47;101751.50;5011359;28;2142;-39
2021/10/07 03:30:44;;;;;;;;;;;;;;;19.97;55.87;101749.53;5012745;28;1987;-39
2021/10/07 03:33:11;;;;;;;;;;;;;;;20.00;55.19;101739.44;5011668;28;1712;-39
2021/10/07 03:35:39;;;;;;;;;;;;;;;20.00;55.39;101760.91;5000108;28;1596;-39
2021/10/07 03:38:15;;;;;;;;;;;;;;;19.99;55.01;101752.97;4995387;28;1824;-38
2021/10/07 03:40:45;;;;;;;;;;;;;;;19.97;55.83;101744.19;5007564;28;1829;-39
2021/10/07 03:43:13;;;;;;;;;;;;;;;20.03;54.94;101754.44;5007816;28;1749;-39
2021/10/07 03:45:43;;;;;;;;;;;;;;;20.00;56.07;101755.53;4993883;28;1979;-39
2021/10/07 03:48:13;;;;;;;;;;;;;;;19.97;55.87;101754.91;5010996;28;1852;-38
2021/10/07 03:50:47;;;;;;;;;;;;;;;19.97;54.95;101738.81;4997370;28;1933;-38
2021/10/07 03:53:14;;;;;;;;;;;;;;;19.97;55.77;101747.72;4997143;28;1774;-38
2021/10/07 03:55:42;;;;;;;;;;;;;;;19.95;55.53;101735.38;4992973;28;1771;-39
2021/10/07 03:58:11;;;;;;;;;;;;;;;19.95;55.56;101741.59;5012030;28;1958;-39
2021/10/07 04:00:42;;;;;;;;;;;;;;;19.94;55.49;101734.53;4993127;28;1043;-39
2021/10/07 04:03:12;;;;;;;;;;;;;;;20.00;56.14;101733.22;4995880;28;1813;-38
2021/10/07 04:05:40;;;;;;;;;;;;;;;19.94;55.50;101739.06;5010685;28;1911;-39
2021/10/07 04:08:10;;;;;;;;;;;;;;;19.91;55.31;101732.06;5011066;28;1832;-39
2021/10/07 04:10:38;;;;;;;;;;;;;;;19.96;55.27;101747.84;5012758;28;1057;-38
2021/10/07 04:13:06;;;;;;;;;;;;;;;19.96;56.02;101745.16;5002748;28;1820;-38
2021/10/07 04:15:40;;;;;;;;;;;;;;;19.95;55.95;101740.75;5001528;28;1838;-38
2021/10/07 04:18:10;;;;;;;;;;;;;;;19.97;56.05;101746.84;5011783;28;1930;-38
2021/10/07 04:20:40;;;;;;;;;;;;;;;19.96;55.42;101747.84;5011188;28;1425;-38
2021/10/07 04:23:11;;;;;;;;;;;;;;;19.95;55.41;101762.22;5002273;28;1901;-38
2021/10/07 04:25:39;;;;;;;;;;;;;;;19.99;56.29;101767.25;4996864;28;1902;-38
2021/10/07 04:28:10;;;;;;;;;;;;;;;19.99;55.92;101758.34;5014655;28;1562;-38
2021/10/07 04:30:41;;;;;;;;;;;;;;;19.93;55.84;101761.50;5016104;28;1947;-39
2021/10/07 04:33:11;;;;;;;;;;;;;;;19.94;56.27;101765.91;5008071;28;1785;-39
2021/10/07 04:35:58;;;;;;;;;;;;;;;19.92;55.10;101779.44;5015169;28;1722;-38
2021/10/07 04:38:26;;;;;;;;;;;;;;;19.91;54.94;101752.69;4996722;28;1959;-38
2021/10/07 04:40:54;;;;;;;;;;;;;;;19.92;55.84;101762.47;4997916;28;1810;-39
2021/10/07 04:43:25;;;;;;;;;;;;;;;19.90;55.93;101759.06;4996255;28;1814;-39
2021/10/07 04:48:38;;;;;;;;;;;;;;;20.03;55.33;101759.81;4999481;28;2699;-39
2021/10/07 04:51:04;;;;;;;;;;;;;;;20.20;55.24;101778.16;5013914;28;1658;-38
2021/10/07 04:53:32;;;;;;;;;;;;;;;20.29;55.86;101765.84;5013807;28;1734;-39
2021/10/07 04:55:58;;;;;;;;;;;;;;;20.30;55.87;101761.34;5012919;28;1754;-39
2021/10/07 04:58:25;;;;;;;;;;;;;;;20.27;55.80;101757.94;5010117;28;1713;-39
2021/10/07 05:00:52;;;;;;;;;;;;;;;20.29;56.14;101770.38;5004937;28;1698;-39
2021/10/07 05:03:20;;;;;;;;;;;;;;;20.28;55.81;101764.16;4996196;28;1543;-39
2021/10/07 05:05:52;;;;;;;;;;;;;;;20.27;56.00;101774.03;5013592;28;1929;-39
2021/10/07 05:08:19;;;;;;;;;;;;;;;20.29;57.37;101749.72;5014844;28;1791;-39
2021/10/07 05:10:46;;;;;;;;;;;;;;;20.36;56.36;101755.50;5014012;28;1450;-40
2021/10/07 05:15:53;;;;;;;;;;;;;;;20.37;57.43;101766.13;5008466;28;1883;-39
2021/10/07 05:18:23;;;;;;;;;;;;;;;20.39;57.73;101768.66;5007994;28;1646;-38
2021/10/07 05:20:54;;;;;;;;;;;;;;;20.37;57.74;101767.94;5008588;28;1591;-38
2021/10/07 05:23:21;;;;;;;;;;;;;;;20.40;58.16;101763.19;5009291;28;1745;-39
2021/10/07 05:25:48;;;;;;;;;;;;;;;20.40;57.11;101762.34;5008715;28;1972;-39
2021/10/07 05:31:13;;;;;;;;;;;;;;;20.49;58.13;101766.97;5008833;28;1770;-37
2021/10/07 05:33:43;;;;;;;;;;;;;;;20.34;56.53;101774.41;4994642;28;1068;-37
2021/10/07 05:36:15;;;;;;;;;;;;;;;19.97;56.27;101781.75;4994917;28;1135;-37
2021/10/07 05:38:42;;;;;;;;;;;;;;;19.78;57.46;101776.94;5002617;28;1869;-37
2021/10/07 05:41:10;;;;;;;;;;;;;;;19.80;56.18;101770.50;5011114;28;1926;-37
2021/10/07 05:43:39;;;;;;;;;;;;;;;19.75;56.95;101772.66;4999157;28;1747;-37
2021/10/07 05:46:06;;;;;;;;;;;;;;;19.73;56.56;101757.66;4995364;28;1906;-36
2021/10/07 05:48:34;;;;;;;;;;;;;;;19.74;57.47;101768.28;5006518;28;1891;-37
2021/10/07 05:51:04;;;;;;;;;;;;;;;19.65;58.77;101767.09;4995450;28;1736;-37
2021/10/07 05:53:36;;;;;;;;;;;;;;;19.64;58.28;101753.81;3964663;28;10000866;-37
2021/10/07 05:56:04;;;;;;;;;;;;;;;19.70;57.94;101769.44;5008018;28;1734;-37
2021/10/07 05:58:40;;;;;;;;;;;;;;;19.65;56.55;101760.88;5011197;28;1656;-37
2021/10/07 06:01:06;;;;;;;;;;;;;;;19.72;57.43;101777.41;5005901;28;1686;-37
2021/10/07 06:03:33;;;;;;;;;;;;;;;19.67;56.99;101764.28;4994677;28;1738;-36
2021/10/07 06:06:00;;;;;;;;;;;;;;;19.97;57.92;101762.97;5006375;28;2030;-37
2021/10/07 06:08:27;;;;;;;;;;;;;;;20.06;58.59;101771.19;5009080;28;1518;-37
2021/10/07 06:11:02;;;;;;;;;;;;;;;20.05;57.29;101777.53;4994086;28;1734;-36
2021/10/07 06:13:39;;;;;;;;;;;;;;;20.12;57.47;101769.00;5010914;28;1579;-37
2021/10/07 06:16:08;;;;;;;;;;;;;;;20.13;58.61;101754.59;5010016;28;1543;-36
2021/10/07 06:18:43;;;;;;;;;;;;;;;20.17;57.65;101750.69;5006567;28;1493;-36
2021/10/07 06:21:11;;;;;;;;;;;;;;;20.17;57.72;101778.38;5004194;28;1513;-36
2021/10/07 06:23:41;;;;;;;;;;;;;;;20.18;58.24;101769.38;5012451;28;1634;-36
2021/10/07 06:26:16;;;;;;;;;;;;;;;20.13;57.43;101784.97;5010907;28;1926;-37
2021/10/07 06:28:43;;;;;;;;;;;;;;;20.15;58.24;101764.22;5002361;28;1726;-37
2021/10/07 06:31:13;;;;;;;;;;;;;;;20.15;58.26;101774.13;4999150;28;1873;-37
2021/10/07 06:33:40;;;;;;;;;;;;;;;20.17;57.16;101791.81;4994118;28;1032;-37
2021/10/07 06:36:09;;;;;;;;;;;;;;;20.18;57.86;101793.53;5001796;28;1879;-37
2021/10/07 06:38:36;;;;;;;;;;;;;;;20.13;58.08;101760.81;5004971;28;1843;-37
2021/10/07 06:41:02;;;;;;;;;;;;;;;20.11;57.92;101762.75;5005989;28;1941;-36
2021/10/07 06:43:31;;;;;;;;;;;;;;;20.13;58.03;101774.22;5006593;28;1814;-37
2021/10/07 06:46:00;;;;;;;;;;;;;;;20.18;57.79;101780.13;5011044;28;1902;-36
2021/10/07 06:48:28;;;;;;;;;;;;;;;20.16;58.33;101775.84;5007899;28;1537;-37
2021/10/07 06:50:55;;;;;;;;;;;;;;;20.17;57.10;101788.28;5010907;28;1618;-37
2021/10/07 06:53:22;;;;;;;;;;;;;;;20.17;57.80;101777.53;5008322;28;1577;-37
2021/10/07 06:55:48;;;;;;;;;;;;;;;20.21;56.90;101793.31;5012342;28;1738;-37
2021/10/07 06:58:17;;;;;;;;;;;;;;;20.20;58.11;101766.56;5012581;28;1739;-36
2021/10/07 07:00:49;;;;;;;;;;;;;;;20.18;58.16;101774.75;5002330;28;1728;-37
2021/10/07 07:03:20;;;;;;;;;;;;;;;20.17;56.82;101783.75;5013310;28;1544;-37
2021/10/07 07:05:50;;;;;;;;;;;;;;;20.21;56.89;101779.00;5005833;28;1919;-36
2021/10/07 07:08:17;;;;;;;;;;;;;;;20.27;56.97;101789.28;5009840;28;1904;-36
2021/10/07 07:10:46;;;;;;;;;;;;;;;20.26;57.89;101766.94;5003580;28;1791;-37
2021/10/07 07:13:12;;;;;;;;;;;;;;;20.26;57.86;101772.31;4997780;28;1673;-37
2021/10/07 07:15:42;;;;;;;;;;;;;;;20.26;58.26;101780.38;5013150;28;1084;-36
2021/10/07 07:18:17;;;;;;;;;;;;;;;20.33;57.38;101779.91;4996435;28;1888;-36
2021/10/07 07:20:47;;;;;;;;;;;;;;;20.36;58.28;101758.19;4996198;28;1687;-37
2021/10/07 07:23:15;;;;;;;;;;;;;;;20.86;57.93;101745.25;5003965;28;1581;-37
2021/10/07 07:25:42;;;;;;;;;;;;;;;21.06;57.66;101752.53;4993642;28;1825;-36
2021/10/07 07:28:10;;;;;;;;;;;;;;;20.91;58.50;101759.19;5012422;28;1973;-37
2021/10/07 07:30:37;;;;;;;;;;;;;;;21.15;58.06;101758.16;5007501;28;1948;-36
2021/10/07 07:33:04;;;;;;;;;;;;;;;21.17;57.99;101769.63;5000438;28;1592;-37
2021/10/07 07:35:33;;;;;;;;;;;;;;;21.33;57.84;101772.81;4998825;28;1797;-37
2021/10/07 07:38:01;;;;;;;;;;;;;;;21.42;56.48;101747.81;5000183;28;1656;-37
2021/10/07 07:40:32;;;;;;;;;;;;;;;21.18;58.05;101765.97;5009924;28;1903;-37
2021/10/07 07:42:59;;;;;;;;;;;;;;;21.11;58.43;101756.69;5009479;28;1102;-36
2021/10/07 07:45:26;;;;;;;;;;;;;;;20.99;58.74;101745.97;5004053;28;1904;-36
2021/10/07 07:47:55;;;;;;;;;;;;;;;21.18;57.97;101763.28;4999245;28;2100;-36
2021/10/07 07:50:24;;;;;;;;;;;;;;;21.45;56.12;101768.28;4999961;28;1803;-37
2021/10/07 07:52:58;;;;;;;;;;;;;;;21.30;58.14;101772.19;5004759;28;1742;-37
2021/10/07 07:55:26;;;;;;;;;;;;;;;21.08;58.04;101762.34;4994177;28;1496;-37
2021/10/07 07:57:53;;;;;;;;;;;;;;;20.97;57.72;101758.69;4996850;28;1560;-37
2021/10/07 08:00:21;;;;;;;;;;;;;;;20.94;58.50;101772.38;4995043;28;1887;-37
2021/10/07 08:02:53;;;;;;;;;;;;;;;20.91;58.73;101772.63;4995226;28;2062;-36
2021/10/07 08:05:22;;;;;;;;;;;;;;;20.84;58.71;101766.03;4999102;28;2014;-38
2021/10/07 08:07:50;;;;;;;;;;;;;;;20.86;58.45;101762.22;5006351;28;1918;-37
2021/10/07 08:10:22;;;;;;;;;;;;;;;20.86;58.58;101761.38;4999576;28;1640;-37
2021/10/07 08:13:06;;;;;;;;;;;;;;;20.83;59.14;101775.06;5007155;28;1817;-36
2021/10/07 08:15:33;;;;;;;;;;;;;;;20.84;57.75;101779.47;5007130;28;1833;-38
2021/10/07 08:18:03;;;;;;;;;;;;;;;20.77;58.56;101765.69;5002526;28;1741;-37
2021/10/07 08:20:32;;;;;;;;;;;;;;;20.75;57.35;101762.25;5000103;28;1836;-37
2021/10/07 08:22:59;;;;;;;;;;;;;;;20.76;58.27;101765.78;5011564;28;1509;-36
2021/10/07 08:25:32;;;;;;;;;;;;;;;20.76;57.65;101763.97;5012023;28;1920;-36
2021/10/07 08:28:02;;;;;;;;;;;;;;;20.74;58.63;101768.59;5009662;28;2000;-37
2021/10/07 08:30:32;;;;;;;;;;;;;;;20.79;58.56;101773.59;5004892;28;1873;-38
2021/10/07 08:33:02;;;;;;;;;;;;;;;20.76;58.05;101765.78;5012254;28;1500;-36
2021/10/07 08:35:32;;;;;;;;;;;;;;;20.76;57.44;101757.72;5008292;28;1631;-36
2021/10/07 08:38:01;;;;;;;;;;;;;;;20.79;57.90;101754.78;4997908;28;1638;-37
2021/10/07 08:40:29;;;;;;;;;;;;;;;20.76;58.22;101760.41;5008329;28;1328;-37
2021/10/07 08:42:59;;;;;;;;;;;;;;;20.76;57.31;101768.47;5011717;28;1349;-37
2021/10/07 08:45:30;;;;;;;;;;;;;;;20.81;58.40;101766.25;5003598;28;1477;-36
2021/10/07 08:47:57;;;;;;;;;;;;;;;20.75;58.36;101805.28;5009354;28;1910;-36
2021/10/07 08:50:23;;;;;;;;;;;;;;;20.75;58.17;101773.00;5012917;28;1650;-36
2021/10/07 08:52:50;;;;;;;;;;;;;;;20.73;57.42;101811.72;5012723;28;1514;-37
2021/10/07 08:55:21;;;;;;;;;;;;;;;20.70;58.23;101801.22;4997585;28;1470;-37
2021/10/07 08:58:03;;;;;;;;;;;;;;;20.67;57.66;101799.63;5006291;28;1866;-37
2021/10/07 09:00:31;;;;;;;;;;;;;;;20.73;57.79;101809.03;5000029;28;1401;-37
2021/10/07 09:03:21;;;;;;;;;;;;;;;20.69;57.57;101811.13;4996820;28;1525;-37
2021/10/07 09:05:49;;;;;;;;;;;;;;;20.72;57.49;101810.88;4995652;28;2200;-37
2021/10/07 09:08:16;;;;;;;;;;;;;;;20.75;58.14;101839.34;5004224;28;1914;-37
2021/10/07 09:10:48;;;;;;;;;;;;;;;20.77;58.20;101818.56;5005174;28;1559;-37
2021/10/07 09:13:21;;;;;;;;;;;;;;;20.74;57.35;101813.44;5008826;28;1654;-37
2021/10/07 09:15:52;;;;;;;;;;;;;;;20.75;58.01;101836.66;5006492;28;1499;-37
2021/10/07 09:18:21;;;;;;;;;;;;;;;20.71;58.04;101837.88;5013379;28;1529;-37
2021/10/07 09:20:59;;;;;;;;;;;;;;;20.69;57.57;101834.44;4997075;28;1537;-37
2021/10/07 09:23:38;;;;;;;;;;;;;;;20.71;57.29;101813.69;5000644;28;1851;-37
2021/10/07 09:26:11;;;;;;;;;;;;;;;20.75;58.35;101836.66;5005432;28;1356;-37
2021/10/07 09:28:52;;;;;;;;;;;;;;;20.73;57.61;101807.22;5012452;28;1907;-38
2021/10/07 09:31:26;;;;;;;;;;;;;;;20.77;57.52;101808.69;5000288;28;1630;-37
2021/10/07 09:33:55;;;;;;;;;;;;;;;20.77;57.37;101823.94;5002491;28;2077;-37
2021/10/07 09:39:06;;;;;;;;;;;;;;;20.80;58.33;101823.72;5002323;28;1744;-37
2021/10/07 09:41:34;;;;;;;;;;;;;;;20.71;58.66;101811.00;5011195;28;1441;-38
2021/10/07 09:44:04;;;;;;;;;;;;;;;20.73;58.53;101822.47;5003957;28;1791;-37
2021/10/07 09:46:42;;;;;;;;;;;;;;;20.77;57.98;101799.75;5007841;28;1981;-39
2021/10/07 09:49:12;;;;;;;;;;;;;;;20.73;57.87;101811.72;5009141;28;1609;-38
2021/10/07 09:51:42;;;;;;;;;;;;;;;20.76;57.73;101792.69;5008700;28;1656;-38
2021/10/07 09:54:12;;;;;;;;;;;;;;;20.76;57.67;101795.38;5005482;28;1487;-37
2021/10/07 09:56:39;;;;;;;;;;;;;;;20.78;57.63;101772.75;5002920;28;1585;-38
2021/10/07 09:59:07;;;;;;;;;;;;;;;20.80;58.67;101769.94;5009445;28;1632;-37
2021/10/07 10:01:37;;;;;;;;;;;;;;;20.83;58.71;101772.38;5001285;28;1630;-38
2021/10/07 10:04:06;;;;;;;;;;;;;;;20.80;59.00;101769.94;5001792;28;1536;-38
2021/10/07 10:06:32;;;;;;;;;;;;;;;20.83;58.04;101758.94;5007780;28;1551;-38
2021/10/07 10:08:59;;;;;;;;;;;;;;;20.87;58.67;101765.81;5009025;28;1987;-38
2021/10/07 10:11:26;;;;;;;;;;;;;;;20.86;58.21;101769.44;5007849;28;1544;-38
2021/10/07 10:13:52;;;;;;;;;;;;;;;20.89;58.71;101773.72;4998820;28;1604;-37
2021/10/07 10:16:22;;;;;;;;;;;;;;;20.83;58.79;101784.00;4997064;28;1597;-37
2021/10/07 10:18:56;;;;;;;;;;;;;;;20.85;58.83;101778.50;5006657;28;1423;-38
2021/10/07 10:21:25;;;;;;;;;;;;;;;20.88;58.68;101788.16;5011096;28;1630;-38
2021/10/07 10:23:53;;;;;;;;;;;;;;;20.79;58.85;101782.53;5006449;28;1679;-38
2021/10/07 10:26:22;;;;;;;;;;;;;;;20.85;58.00;101818.84;5008423;28;1747;-38
2021/10/07 10:28:53;;;;;;;;;;;;;;;20.80;58.58;101805.75;5006678;28;1981;-38
2021/10/07 10:31:38;;;;;;;;;;;;;;;20.87;57.86;101790.00;5009268;28;1571;-38
2021/10/07 10:34:09;;;;;;;;;;;;;;;20.76;58.50;101812.34;5001851;28;1877;-38
2021/10/07 10:36:52;;;;;;;;;;;;;;;20.78;60.92;101833.72;5003343;28;1091;-37
2021/10/07 10:39:29;;;;;;;;;;;;;;;20.75;60.47;101804.41;5008053;28;1808;-37
2021/10/07 10:41:59;;;;;;;;;;;;;;;20.70;59.92;101817.34;5006995;28;1632;-37
2021/10/07 10:44:33;;;;;;;;;;;;;;;20.68;60.71;101820.16;5009719;28;1488;-38
2021/10/07 10:47:01;;;;;;;;;;;;;;;20.71;60.20;101819.94;5013072;28;1902;-37
2021/10/07 10:49:37;;;;;;;;;;;;;;;20.71;59.16;101813.69;5008384;28;1520;-37
2021/10/07 10:52:19;;;;;;;;;;;;;;;20.73;59.02;101812.59;5012893;28;1461;-38
2021/10/07 10:54:54;;;;;;;;;;;;;;;20.71;59.64;101784.09;5005559;28;1636;-37
2021/10/07 10:57:31;;;;;;;;;;;;;;;20.66;60.18;101806.84;4997863;28;1780;-37
2021/10/07 11:00:22;;;;;;;;;;;;;;;20.74;59.70;101765.06;5003125;28;1855;-37
2021/10/07 11:02:54;;;;;;;;;;;;;;;20.76;58.69;101769.34;5010486;28;1984;-37
2021/10/07 11:05:22;;;;;;;;;;;;;;;20.70;58.81;101801.22;4999147;28;1933;-37
2021/10/07 11:08:09;;;;;;;;;;;;;;;20.69;57.95;101761.88;4995730;28;1906;-38
2021/10/07 11:10:49;;;;;;;;;;;;;;;20.69;59.15;101756.50;5012501;28;1448;-37
2021/10/07 11:13:24;;;;;;;;;;;;;;;20.69;58.62;101745.75;4995041;28;2129;-37
2021/10/07 11:15:53;;;;;;;;;;;;;;;20.72;58.68;101797.44;4995238;28;1450;-37
2021/10/07 11:18:24;;;;;;;;;;;;;;;20.72;58.46;101767.88;5001474;28;1063;-37
2021/10/07 11:20:57;;;;;;;;;;;;;;;20.77;58.56;101754.06;5012753;28;1787;-37
2021/10/07 11:23:28;;;;;;;;;;;;;;;20.78;58.34;101748.56;5004143;28;1835;-37
2021/10/07 11:26:04;;;;;;;;;;;;;;;20.74;59.45;101755.16;4999376;28;1875;-37
2021/10/07 11:28:32;;;;;;;;;;;;;;;20.75;58.36;101745.25;5011561;28;1906;-38
2021/10/07 11:31:00;;;;;;;;;;;;;;;20.77;58.30;101770.19;5004709;28;1665;-37
2021/10/07 11:33:28;;;;;;;;;;;;;;;20.77;58.97;101764.81;5006314;28;1585;-37
2021/10/07 11:35:59;;;;;;;;;;;;;;;20.85;57.93;101751.63;5008389;28;1977;-38
2021/10/07 11:38:29;;;;;;;;;;;;;;;20.77;58.99;101759.44;4999738;28;1972;-38
2021/10/07 11:41:02;;;;;;;;;;;;;;;20.70;58.28;101761.75;5001582;28;1832;-38
2021/10/07 11:43:51;;;;;;;;;;;;;;;20.68;58.71;101760.19;5011976;28;1991;-38
2021/10/07 11:46:19;;;;;;;;;;;;;;;20.69;59.28;101764.56;4999802;28;1671;-37
2021/10/07 11:48:48;;;;;;;;;;;;;;;20.65;58.00;101743.31;5001372;28;1906;-38
2021/10/07 11:51:23;;;;;;;;;;;;;;;20.65;58.33;101753.19;5014025;28;1049;-38
2021/10/07 11:53:54;;;;;;;;;;;;;;;20.68;58.50;101760.19;5005982;28;1862;-38
2021/10/07 11:56:27;;;;;;;;;;;;;;;20.63;59.00;101752.47;5002559;28;1896;-37
2021/10/07 11:59:00;;;;;;;;;;;;;;;20.71;58.82;101767.97;4997151;28;2010;-38
2021/10/07 12:01:31;;;;;;;;;;;;;;;20.70;58.62;101753.69;5005384;28;1429;-40
2021/10/07 12:03:59;;;;;;;;;;;;;;;20.69;58.19;101757.38;5006304;28;1797;-38
2021/10/07 12:06:28;;;;;;;;;;;;;;;20.68;57.79;101757.50;5005103;28;1417;-38
2021/10/07 12:08:57;;;;;;;;;;;;;;;20.66;58.46;101758.47;5001874;28;1968;-38
2021/10/07 12:11:31;;;;;;;;;;;;;;;20.70;59.25;101763.59;5000304;28;1673;-38
2021/10/07 12:13:58;;;;;;;;;;;;;;;20.69;57.52;101752.00;4997813;28;2100;-37
2021/10/07 12:16:26;;;;;;;;;;;;;;;20.66;57.66;101752.22;4997873;28;1788;-38
2021/10/07 12:18:57;;;;;;;;;;;;;;;20.60;58.16;101784.97;5002024;28;1244;-38
2021/10/07 12:21:26;;;;;;;;;;;;;;;20.61;57.87;101787.56;5006354;28;1414;-38
2021/10/07 12:23:55;;;;;;;;;;;;;;;20.58;57.72;101752.81;5001255;28;2059;-38
2021/10/07 12:26:32;;;;;;;;;;;;;;;20.62;57.61;101757.00;5012633;28;1960;-38
2021/10/07 12:29:05;;;;;;;;;;;;;;;20.65;58.79;101759.44;5009361;28;1963;-37
2021/10/07 12:31:35;;;;;;;;;;;;;;;20.70;57.43;101747.47;5002705;28;1727;-38
2021/10/07 12:34:04;;;;;;;;;;;;;;;20.76;58.03;101757.72;5005551;28;1443;-38
2021/10/07 12:36:40;;;;;;;;;;;;;;;20.71;58.46;101750.03;5004551;28;1763;-37
2021/10/07 12:39:16;;;;;;;;;;;;;;;20.75;58.35;101761.38;5012221;28;1930;-37
2021/10/07 12:41:47;;;;;;;;;;;;;;;20.76;58.97;101758.56;5009061;28;1492;-38
2021/10/07 12:44:22;;;;;;;;;;;;;;;20.77;58.52;101749.56;5012019;28;1787;-38
2021/10/07 12:46:51;;;;;;;;;;;;;;;20.75;59.32;101746.13;5010992;28;1528;-38
2021/10/07 12:49:31;;;;;;;;;;;;;;;20.75;59.30;101734.50;5009503;28;1906;-38
2021/10/07 12:51:59;;;;;;;;;;;;;;;20.73;59.30;101731.97;5012288;28;1695;-38
2021/10/07 12:54:30;;;;;;;;;;;;;;;20.76;58.57;101731.69;5012764;28;1887;-38
2021/10/07 12:57:00;;;;;;;;;;;;;;;20.77;58.57;101722.66;5006505;28;2017;-38
2021/10/07 12:59:26;;;;;;;;;;;;;;;20.84;58.03;101723.88;5009388;28;1609;-38
2021/10/07 13:01:53;;;;;;;;;;;;;;;20.82;58.61;101730.34;5011159;28;1502;-38
2021/10/07 13:04:26;;;;;;;;;;;;;;;20.81;58.56;101723.25;5012728;28;1936;-37
2021/10/07 13:06:55;;;;;;;;;;;;;;;20.83;57.83;101737.44;5010303;28;1683;-38
2021/10/07 13:09:26;;;;;;;;;;;;;;;20.78;57.56;101735.13;5010647;28;1902;-37
2021/10/07 13:11:55;;;;;;;;;;;;;;;20.79;57.69;101735.97;5015499;28;1568;-37
2021/10/07 13:14:25;;;;;;;;;;;;;;;20.79;57.96;101747.59;5012721;28;1887;-38
2021/10/07 13:16:52;;;;;;;;;;;;;;;20.77;56.95;101754.94;5008067;28;1967;-38
2021/10/07 13:19:19;;;;;;;;;;;;;;;20.74;57.22;101751.63;5016038;28;1711;-37
2021/10/07 13:21:47;;;;;;;;;;;;;;;20.70;57.48;101747.47;5010242;28;1944;-38
2021/10/07 13:24:14;;;;;;;;;;;;;;;20.71;57.55;101757.22;5013774;28;1536;-37